sensor_id;sensor_type;location;lat;lon;timestamp;P1;durP1;ratioP1;P2;durP2;ratioP2
82409;SDS011;72049;51.766;6.846;2024-02-21T00:01:35;13.77;;;4.10;;
82409;SDS011;72049;51.766;6.846;2024-02-21T00:04:01;14.18;;;4.78;;
82409;SDS011;72049;51.766;6.846;2024-02-21T00:06:26;15.20;;;5.33;;
82409;SDS011;72049;51.766;6.846;2024-02-21T00:08:51;12.37;;;4.60;;
82409;SDS011;72049;51.766;6.846;2024-02-21T00:11:17;14.90;;;5.28;;
82409;SDS011;72049;51.766;6.846;2024-02-21T00:13:42;14.40;;;4.82;;
82409;SDS011;72049;51.766;6.846;2024-02-21T00:16:07;14.88;;;5.65;;
82409;SDS011;72049;51.766;6.846;2024-02-21T00:18:33;9.97;;;4.47;;
82409;SDS011;72049;51.766;6.846;2024-02-21T00:20:58;17.55;;;6.63;;
82409;SDS011;72049;51.766;6.846;2024-02-21T00:23:24;15.48;;;5.30;;
82409;SDS011;72049;51.766;6.846;2024-02-21T00:25:49;10.85;;;5.07;;
82409;SDS011;72049;51.766;6.846;2024-02-21T00:28:15;13.68;;;5.78;;
82409;SDS011;72049;51.766;6.846;2024-02-21T00:30:40;15.73;;;5.80;;
82409;SDS011;72049;51.766;6.846;2024-02-21T00:33:05;11.18;;;5.93;;
82409;SDS011;72049;51.766;6.846;2024-02-21T00:35:31;11.40;;;5.38;;
82409;SDS011;72049;51.766;6.846;2024-02-21T00:37:56;13.80;;;6.13;;
82409;SDS011;72049;51.766;6.846;2024-02-21T00:40:22;14.68;;;5.03;;
82409;SDS011;72049;51.766;6.846;2024-02-21T00:42:48;12.40;;;5.35;;
82409;SDS011;72049;51.766;6.846;2024-02-21T00:45:13;17.38;;;5.45;;
82409;SDS011;72049;51.766;6.846;2024-02-21T00:47:39;12.70;;;5.13;;
82409;SDS011;72049;51.766;6.846;2024-02-21T00:50:04;17.80;;;5.63;;
82409;SDS011;72049;51.766;6.846;2024-02-21T00:52:30;10.20;;;4.57;;
82409;SDS011;72049;51.766;6.846;2024-02-21T00:54:55;16.53;;;5.73;;
82409;SDS011;72049;51.766;6.846;2024-02-21T00:57:21;15.48;;;4.85;;
82409;SDS011;72049;51.766;6.846;2024-02-21T00:59:46;17.02;;;5.90;;
82409;SDS011;72049;51.766;6.846;2024-02-21T01:02:12;18.77;;;5.77;;
82409;SDS011;72049;51.766;6.846;2024-02-21T01:04:37;14.17;;;5.30;;
82409;SDS011;72049;51.766;6.846;2024-02-21T01:07:02;14.15;;;5.30;;
82409;SDS011;72049;51.766;6.846;2024-02-21T01:09:28;17.50;;;5.07;;
82409;SDS011;72049;51.766;6.846;2024-02-21T01:11:53;14.63;;;6.50;;
82409;SDS011;72049;51.766;6.846;2024-02-21T01:14:18;15.80;;;5.07;;
82409;SDS011;72049;51.766;6.846;2024-02-21T01:16:44;18.25;;;5.45;;
82409;SDS011;72049;51.766;6.846;2024-02-21T01:19:09;13.88;;;4.78;;
82409;SDS011;72049;51.766;6.846;2024-02-21T01:21:35;10.05;;;4.50;;
82409;SDS011;72049;51.766;6.846;2024-02-21T01:24:00;21.37;;;5.77;;
82409;SDS011;72049;51.766;6.846;2024-02-21T01:26:25;12.63;;;4.30;;
82409;SDS011;72049;51.766;6.846;2024-02-21T01:28:51;13.17;;;5.77;;
82409;SDS011;72049;51.766;6.846;2024-02-21T01:31:16;14.93;;;5.32;;
82409;SDS011;72049;51.766;6.846;2024-02-21T01:33:41;14.40;;;5.03;;
82409;SDS011;72049;51.766;6.846;2024-02-21T01:36:07;15.13;;;6.00;;
82409;SDS011;72049;51.766;6.846;2024-02-21T01:38:33;16.23;;;4.95;;
82409;SDS011;72049;51.766;6.846;2024-02-21T01:40:58;17.27;;;5.30;;
82409;SDS011;72049;51.766;6.846;2024-02-21T01:43:23;13.00;;;5.00;;
82409;SDS011;72049;51.766;6.846;2024-02-21T01:45:50;12.18;;;4.80;;
82409;SDS011;72049;51.766;6.846;2024-02-21T01:48:16;17.75;;;5.65;;
82409;SDS011;72049;51.766;6.846;2024-02-21T01:50:42;21.35;;;5.63;;
82409;SDS011;72049;51.766;6.846;2024-02-21T01:53:08;11.93;;;4.88;;
82409;SDS011;72049;51.766;6.846;2024-02-21T01:55:34;15.48;;;5.57;;
82409;SDS011;72049;51.766;6.846;2024-02-21T01:57:59;11.53;;;5.40;;
82409;SDS011;72049;51.766;6.846;2024-02-21T02:00:24;16.65;;;5.38;;
82409;SDS011;72049;51.766;6.846;2024-02-21T02:02:50;12.93;;;5.57;;
82409;SDS011;72049;51.766;6.846;2024-02-21T02:05:15;13.88;;;5.25;;
82409;SDS011;72049;51.766;6.846;2024-02-21T02:07:42;13.65;;;5.53;;
82409;SDS011;72049;51.766;6.846;2024-02-21T02:10:07;12.40;;;5.47;;
82409;SDS011;72049;51.766;6.846;2024-02-21T02:12:33;11.55;;;5.22;;
82409;SDS011;72049;51.766;6.846;2024-02-21T02:15:01;13.38;;;5.13;;
82409;SDS011;72049;51.766;6.846;2024-02-21T02:17:29;10.63;;;4.80;;
82409;SDS011;72049;51.766;6.846;2024-02-21T02:19:55;14.50;;;4.88;;
82409;SDS011;72049;51.766;6.846;2024-02-21T02:22:22;13.43;;;5.75;;
82409;SDS011;72049;51.766;6.846;2024-02-21T02:24:47;16.30;;;5.30;;
82409;SDS011;72049;51.766;6.846;2024-02-21T02:27:13;15.07;;;5.50;;
82409;SDS011;72049;51.766;6.846;2024-02-21T02:29:38;13.23;;;4.60;;
82409;SDS011;72049;51.766;6.846;2024-02-21T02:32:04;9.73;;;4.27;;
82409;SDS011;72049;51.766;6.846;2024-02-21T02:34:29;16.27;;;5.50;;
82409;SDS011;72049;51.766;6.846;2024-02-21T02:36:55;15.07;;;5.47;;
82409;SDS011;72049;51.766;6.846;2024-02-21T02:39:21;12.60;;;5.03;;
82409;SDS011;72049;51.766;6.846;2024-02-21T02:41:46;16.48;;;5.15;;
82409;SDS011;72049;51.766;6.846;2024-02-21T02:44:11;16.37;;;4.37;;
82409;SDS011;72049;51.766;6.846;2024-02-21T02:46:39;13.52;;;4.97;;
82409;SDS011;72049;51.766;6.846;2024-02-21T02:49:05;13.90;;;5.35;;
82409;SDS011;72049;51.766;6.846;2024-02-21T02:51:30;15.88;;;6.13;;
82409;SDS011;72049;51.766;6.846;2024-02-21T02:53:56;15.02;;;5.38;;
82409;SDS011;72049;51.766;6.846;2024-02-21T02:56:22;11.40;;;5.00;;
82409;SDS011;72049;51.766;6.846;2024-02-21T02:58:47;12.80;;;5.47;;
82409;SDS011;72049;51.766;6.846;2024-02-21T03:01:12;16.63;;;5.50;;
82409;SDS011;72049;51.766;6.846;2024-02-21T03:03:38;12.15;;;5.15;;
82409;SDS011;72049;51.766;6.846;2024-02-21T03:06:04;17.50;;;5.40;;
82409;SDS011;72049;51.766;6.846;2024-02-21T03:08:29;9.20;;;4.93;;
82409;SDS011;72049;51.766;6.846;2024-02-21T03:10:55;14.63;;;5.10;;
82409;SDS011;72049;51.766;6.846;2024-02-21T03:13:20;11.27;;;4.17;;
82409;SDS011;72049;51.766;6.846;2024-02-21T03:15:45;12.15;;;4.35;;
82409;SDS011;72049;51.766;6.846;2024-02-21T03:18:11;11.67;;;4.33;;
82409;SDS011;72049;51.766;6.846;2024-02-21T03:20:36;10.20;;;4.07;;
82409;SDS011;72049;51.766;6.846;2024-02-21T03:23:01;12.17;;;4.70;;
82409;SDS011;72049;51.766;6.846;2024-02-21T03:25:27;8.50;;;4.63;;
82409;SDS011;72049;51.766;6.846;2024-02-21T03:27:52;15.47;;;4.43;;
82409;SDS011;72049;51.766;6.846;2024-02-21T03:30:17;12.13;;;4.70;;
82409;SDS011;72049;51.766;6.846;2024-02-21T03:32:43;10.00;;;3.83;;
82409;SDS011;72049;51.766;6.846;2024-02-21T03:35:08;12.47;;;4.60;;
82409;SDS011;72049;51.766;6.846;2024-02-21T03:37:33;12.50;;;4.25;;
82409;SDS011;72049;51.766;6.846;2024-02-21T03:39:59;9.65;;;4.80;;
82409;SDS011;72049;51.766;6.846;2024-02-21T03:42:24;13.57;;;3.80;;
82409;SDS011;72049;51.766;6.846;2024-02-21T03:44:50;13.68;;;4.47;;
82409;SDS011;72049;51.766;6.846;2024-02-21T03:47:15;11.60;;;3.97;;
82409;SDS011;72049;51.766;6.846;2024-02-21T03:49:40;10.93;;;4.43;;
82409;SDS011;72049;51.766;6.846;2024-02-21T03:52:06;7.60;;;3.88;;
82409;SDS011;72049;51.766;6.846;2024-02-21T03:54:31;13.23;;;4.10;;
82409;SDS011;72049;51.766;6.846;2024-02-21T03:56:56;8.80;;;3.97;;
82409;SDS011;72049;51.766;6.846;2024-02-21T03:59:22;11.32;;;4.15;;
82409;SDS011;72049;51.766;6.846;2024-02-21T04:01:51;8.75;;;3.70;;
82409;SDS011;72049;51.766;6.846;2024-02-21T04:04:16;9.18;;;3.67;;
82409;SDS011;72049;51.766;6.846;2024-02-21T04:06:48;8.27;;;3.90;;
82409;SDS011;72049;51.766;6.846;2024-02-21T04:09:13;10.90;;;4.35;;
82409;SDS011;72049;51.766;6.846;2024-02-21T04:11:39;8.93;;;3.67;;
82409;SDS011;72049;51.766;6.846;2024-02-21T04:14:04;9.57;;;3.50;;
82409;SDS011;72049;51.766;6.846;2024-02-21T04:16:29;8.98;;;4.07;;
82409;SDS011;72049;51.766;6.846;2024-02-21T04:18:55;10.30;;;3.40;;
82409;SDS011;72049;51.766;6.846;2024-02-21T04:21:20;7.47;;;4.03;;
82409;SDS011;72049;51.766;6.846;2024-02-21T04:23:45;8.80;;;3.73;;
82409;SDS011;72049;51.766;6.846;2024-02-21T04:26:11;9.40;;;3.72;;
82409;SDS011;72049;51.766;6.846;2024-02-21T04:28:36;10.37;;;4.23;;
82409;SDS011;72049;51.766;6.846;2024-02-21T04:31:01;8.50;;;3.65;;
82409;SDS011;72049;51.766;6.846;2024-02-21T04:33:27;9.33;;;3.97;;
82409;SDS011;72049;51.766;6.846;2024-02-21T04:35:52;9.27;;;3.60;;
82409;SDS011;72049;51.766;6.846;2024-02-21T04:38:20;8.30;;;3.78;;
82409;SDS011;72049;51.766;6.846;2024-02-21T04:40:45;8.85;;;3.92;;
82409;SDS011;72049;51.766;6.846;2024-02-21T04:43:10;8.60;;;3.22;;
82409;SDS011;72049;51.766;6.846;2024-02-21T04:45:35;9.50;;;4.00;;
82409;SDS011;72049;51.766;6.846;2024-02-21T04:48:01;11.10;;;3.45;;
82409;SDS011;72049;51.766;6.846;2024-02-21T04:50:26;6.57;;;3.03;;
82409;SDS011;72049;51.766;6.846;2024-02-21T04:52:52;10.68;;;3.97;;
82409;SDS011;72049;51.766;6.846;2024-02-21T04:55:17;7.23;;;2.97;;
82409;SDS011;72049;51.766;6.846;2024-02-21T04:57:43;8.23;;;2.83;;
82409;SDS011;72049;51.766;6.846;2024-02-21T05:00:08;12.27;;;3.77;;
82409;SDS011;72049;51.766;6.846;2024-02-21T05:02:34;9.50;;;3.65;;
82409;SDS011;72049;51.766;6.846;2024-02-21T05:04:59;8.95;;;3.30;;
82409;SDS011;72049;51.766;6.846;2024-02-21T05:07:25;7.70;;;3.50;;
82409;SDS011;72049;51.766;6.846;2024-02-21T05:09:50;9.02;;;4.00;;
82409;SDS011;72049;51.766;6.846;2024-02-21T05:12:16;7.50;;;2.70;;
82409;SDS011;72049;51.766;6.846;2024-02-21T05:14:41;7.87;;;3.23;;
82409;SDS011;72049;51.766;6.846;2024-02-21T05:17:06;7.43;;;3.13;;
82409;SDS011;72049;51.766;6.846;2024-02-21T05:19:32;8.03;;;3.93;;
82409;SDS011;72049;51.766;6.846;2024-02-21T05:21:58;12.27;;;4.00;;
82409;SDS011;72049;51.766;6.846;2024-02-21T05:24:23;12.50;;;3.28;;
82409;SDS011;72049;51.766;6.846;2024-02-21T05:26:49;10.05;;;3.65;;
82409;SDS011;72049;51.766;6.846;2024-02-21T05:29:14;10.45;;;3.63;;
82409;SDS011;72049;51.766;6.846;2024-02-21T05:31:58;8.20;;;3.28;;
82409;SDS011;72049;51.766;6.846;2024-02-21T05:34:23;11.35;;;3.33;;
82409;SDS011;72049;51.766;6.846;2024-02-21T05:36:48;13.32;;;3.88;;
82409;SDS011;72049;51.766;6.846;2024-02-21T05:39:14;8.05;;;3.33;;
82409;SDS011;72049;51.766;6.846;2024-02-21T05:41:40;7.10;;;3.58;;
82409;SDS011;72049;51.766;6.846;2024-02-21T05:44:05;7.75;;;3.22;;
82409;SDS011;72049;51.766;6.846;2024-02-21T05:46:31;7.03;;;3.25;;
82409;SDS011;72049;51.766;6.846;2024-02-21T05:48:56;7.30;;;2.87;;
82409;SDS011;72049;51.766;6.846;2024-02-21T05:51:21;8.27;;;3.47;;
82409;SDS011;72049;51.766;6.846;2024-02-21T05:53:47;6.65;;;2.97;;
82409;SDS011;72049;51.766;6.846;2024-02-21T05:56:12;14.07;;;3.65;;
82409;SDS011;72049;51.766;6.846;2024-02-21T05:58:38;7.18;;;3.25;;
82409;SDS011;72049;51.766;6.846;2024-02-21T06:01:03;6.47;;;3.30;;
82409;SDS011;72049;51.766;6.846;2024-02-21T06:03:29;11.55;;;3.33;;
82409;SDS011;72049;51.766;6.846;2024-02-21T06:05:55;7.93;;;3.42;;
82409;SDS011;72049;51.766;6.846;2024-02-21T06:08:20;9.50;;;3.35;;
82409;SDS011;72049;51.766;6.846;2024-02-21T06:10:46;6.68;;;3.00;;
82409;SDS011;72049;51.766;6.846;2024-02-21T06:13:12;6.75;;;2.83;;
82409;SDS011;72049;51.766;6.846;2024-02-21T06:15:37;8.90;;;3.13;;
82409;SDS011;72049;51.766;6.846;2024-02-21T06:18:03;6.00;;;2.53;;
82409;SDS011;72049;51.766;6.846;2024-02-21T06:20:28;9.80;;;3.72;;
82409;SDS011;72049;51.766;6.846;2024-02-21T06:22:54;11.20;;;2.72;;
82409;SDS011;72049;51.766;6.846;2024-02-21T06:25:19;8.50;;;3.13;;
82409;SDS011;72049;51.766;6.846;2024-02-21T06:27:44;10.50;;;3.37;;
82409;SDS011;72049;51.766;6.846;2024-02-21T06:30:10;7.73;;;3.00;;
82409;SDS011;72049;51.766;6.846;2024-02-21T06:32:35;7.90;;;3.20;;
82409;SDS011;72049;51.766;6.846;2024-02-21T06:35:01;7.07;;;2.83;;
82409;SDS011;72049;51.766;6.846;2024-02-21T06:37:29;9.43;;;3.13;;
82409;SDS011;72049;51.766;6.846;2024-02-21T06:39:55;7.95;;;2.85;;
82409;SDS011;72049;51.766;6.846;2024-02-21T06:42:20;6.93;;;3.30;;
82409;SDS011;72049;51.766;6.846;2024-02-21T06:44:46;8.15;;;3.33;;
82409;SDS011;72049;51.766;6.846;2024-02-21T06:47:12;8.38;;;2.72;;
82409;SDS011;72049;51.766;6.846;2024-02-21T06:49:37;7.00;;;3.00;;
82409;SDS011;72049;51.766;6.846;2024-02-21T06:52:03;9.75;;;3.60;;
82409;SDS011;72049;51.766;6.846;2024-02-21T06:54:29;6.70;;;3.15;;
82409;SDS011;72049;51.766;6.846;2024-02-21T06:56:54;6.55;;;2.67;;
82409;SDS011;72049;51.766;6.846;2024-02-21T06:59:19;7.85;;;2.58;;
82409;SDS011;72049;51.766;6.846;2024-02-21T07:01:45;6.82;;;2.83;;
82409;SDS011;72049;51.766;6.846;2024-02-21T07:04:11;7.07;;;2.97;;
82409;SDS011;72049;51.766;6.846;2024-02-21T07:06:36;6.85;;;2.85;;
82409;SDS011;72049;51.766;6.846;2024-02-21T07:09:02;10.32;;;3.08;;
82409;SDS011;72049;51.766;6.846;2024-02-21T07:11:27;8.65;;;3.30;;
82409;SDS011;72049;51.766;6.846;2024-02-21T07:13:53;7.95;;;3.22;;
82409;SDS011;72049;51.766;6.846;2024-02-21T07:16:18;9.52;;;3.35;;
82409;SDS011;72049;51.766;6.846;2024-02-21T07:18:44;7.45;;;2.78;;
82409;SDS011;72049;51.766;6.846;2024-02-21T07:21:09;7.43;;;3.30;;
82409;SDS011;72049;51.766;6.846;2024-02-21T07:23:34;7.03;;;3.37;;
82409;SDS011;72049;51.766;6.846;2024-02-21T07:26:00;5.77;;;2.80;;
82409;SDS011;72049;51.766;6.846;2024-02-21T07:28:25;8.00;;;3.40;;
82409;SDS011;72049;51.766;6.846;2024-02-21T07:30:50;10.47;;;2.87;;
82409;SDS011;72049;51.766;6.846;2024-02-21T07:33:16;5.67;;;2.43;;
82409;SDS011;72049;51.766;6.846;2024-02-21T07:35:41;8.50;;;3.03;;
82409;SDS011;72049;51.766;6.846;2024-02-21T07:38:09;9.15;;;2.92;;
82409;SDS011;72049;51.766;6.846;2024-02-21T07:40:37;10.88;;;3.53;;
82409;SDS011;72049;51.766;6.846;2024-02-21T07:43:03;8.82;;;4.10;;
82409;SDS011;72049;51.766;6.846;2024-02-21T07:45:28;6.72;;;3.10;;
82409;SDS011;72049;51.766;6.846;2024-02-21T07:47:53;6.50;;;3.50;;
82409;SDS011;72049;51.766;6.846;2024-02-21T07:50:19;11.35;;;3.85;;
82409;SDS011;72049;51.766;6.846;2024-02-21T07:52:44;8.67;;;2.70;;
82409;SDS011;72049;51.766;6.846;2024-02-21T07:55:09;6.40;;;2.75;;
82409;SDS011;72049;51.766;6.846;2024-02-21T07:57:37;8.73;;;3.63;;
82409;SDS011;72049;51.766;6.846;2024-02-21T08:00:03;7.88;;;3.42;;
82409;SDS011;72049;51.766;6.846;2024-02-21T08:02:37;7.47;;;3.00;;
82409;SDS011;72049;51.766;6.846;2024-02-21T08:05:03;13.35;;;3.60;;
82409;SDS011;72049;51.766;6.846;2024-02-21T08:07:28;7.80;;;3.65;;
82409;SDS011;72049;51.766;6.846;2024-02-21T08:09:54;9.55;;;3.22;;
82409;SDS011;72049;51.766;6.846;2024-02-21T08:12:19;10.80;;;3.03;;
82409;SDS011;72049;51.766;6.846;2024-02-21T08:14:44;7.30;;;3.80;;
82409;SDS011;72049;51.766;6.846;2024-02-21T08:17:10;10.87;;;3.17;;
82409;SDS011;72049;51.766;6.846;2024-02-21T08:19:35;9.10;;;3.50;;
82409;SDS011;72049;51.766;6.846;2024-02-21T08:22:01;7.82;;;3.10;;
82409;SDS011;72049;51.766;6.846;2024-02-21T08:24:26;9.00;;;3.75;;
82409;SDS011;72049;51.766;6.846;2024-02-21T08:26:52;9.88;;;3.65;;
82409;SDS011;72049;51.766;6.846;2024-02-21T08:29:17;6.63;;;3.20;;
82409;SDS011;72049;51.766;6.846;2024-02-21T08:31:42;9.70;;;2.80;;
82409;SDS011;72049;51.766;6.846;2024-02-21T08:34:08;11.43;;;3.37;;
82409;SDS011;72049;51.766;6.846;2024-02-21T08:36:33;8.87;;;3.20;;
82409;SDS011;72049;51.766;6.846;2024-02-21T08:38:59;8.05;;;3.50;;
82409;SDS011;72049;51.766;6.846;2024-02-21T08:41:24;8.40;;;2.53;;
82409;SDS011;72049;51.766;6.846;2024-02-21T08:43:50;5.40;;;2.25;;
82409;SDS011;72049;51.766;6.846;2024-02-21T08:46:16;11.57;;;3.30;;
82409;SDS011;72049;51.766;6.846;2024-02-21T08:48:41;8.27;;;2.60;;
82409;SDS011;72049;51.766;6.846;2024-02-21T08:51:06;10.57;;;3.37;;
82409;SDS011;72049;51.766;6.846;2024-02-21T08:53:32;10.33;;;2.70;;
82409;SDS011;72049;51.766;6.846;2024-02-21T08:55:57;6.70;;;2.80;;
82409;SDS011;72049;51.766;6.846;2024-02-21T08:58:24;8.23;;;3.15;;
82409;SDS011;72049;51.766;6.846;2024-02-21T09:00:51;6.03;;;2.80;;
82409;SDS011;72049;51.766;6.846;2024-02-21T09:03:16;8.73;;;2.30;;
82409;SDS011;72049;51.766;6.846;2024-02-21T09:05:42;5.72;;;2.83;;
82409;SDS011;72049;51.766;6.846;2024-02-21T09:08:08;6.73;;;2.37;;
82409;SDS011;72049;51.766;6.846;2024-02-21T09:10:33;6.47;;;2.38;;
82409;SDS011;72049;51.766;6.846;2024-02-21T09:12:58;4.40;;;1.40;;
82409;SDS011;72049;51.766;6.846;2024-02-21T09:15:24;6.07;;;2.50;;
82409;SDS011;72049;51.766;6.846;2024-02-21T09:17:49;4.97;;;2.20;;
82409;SDS011;72049;51.766;6.846;2024-02-21T09:20:14;6.80;;;2.33;;
82409;SDS011;72049;51.766;6.846;2024-02-21T09:22:41;6.53;;;2.08;;
82409;SDS011;72049;51.766;6.846;2024-02-21T09:25:06;5.07;;;2.30;;
82409;SDS011;72049;51.766;6.846;2024-02-21T09:27:32;5.45;;;2.22;;
82409;SDS011;72049;51.766;6.846;2024-02-21T09:29:57;10.20;;;2.63;;
82409;SDS011;72049;51.766;6.846;2024-02-21T09:32:23;6.37;;;2.77;;
82409;SDS011;72049;51.766;6.846;2024-02-21T09:34:48;5.35;;;2.20;;
82409;SDS011;72049;51.766;6.846;2024-02-21T09:37:13;7.47;;;2.20;;
82409;SDS011;72049;51.766;6.846;2024-02-21T09:39:39;5.83;;;2.60;;
82409;SDS011;72049;51.766;6.846;2024-02-21T09:42:05;5.40;;;2.77;;
82409;SDS011;72049;51.766;6.846;2024-02-21T09:44:33;6.75;;;2.22;;
82409;SDS011;72049;51.766;6.846;2024-02-21T09:47:06;8.02;;;3.47;;
82409;SDS011;72049;51.766;6.846;2024-02-21T09:52:04;5.80;;;1.98;;
82409;SDS011;72049;51.766;6.846;2024-02-21T09:54:30;4.20;;;1.83;;
82409;SDS011;72049;51.766;6.846;2024-02-21T09:56:56;3.78;;;2.00;;
82409;SDS011;72049;51.766;6.846;2024-02-21T09:59:22;4.00;;;2.05;;
82409;SDS011;72049;51.766;6.846;2024-02-21T10:01:47;6.78;;;2.55;;
82409;SDS011;72049;51.766;6.846;2024-02-21T10:04:12;4.68;;;1.80;;
82409;SDS011;72049;51.766;6.846;2024-02-21T10:06:38;6.40;;;2.20;;
82409;SDS011;72049;51.766;6.846;2024-02-21T10:09:05;4.43;;;2.35;;
82409;SDS011;72049;51.766;6.846;2024-02-21T10:11:31;7.47;;;2.33;;
82409;SDS011;72049;51.766;6.846;2024-02-21T10:14:05;5.43;;;2.17;;
82409;SDS011;72049;51.766;6.846;2024-02-21T10:16:31;3.85;;;1.92;;
82409;SDS011;72049;51.766;6.846;2024-02-21T10:18:56;4.07;;;2.20;;
82409;SDS011;72049;51.766;6.846;2024-02-21T10:21:22;5.65;;;1.75;;
82409;SDS011;72049;51.766;6.846;2024-02-21T10:23:50;3.37;;;1.80;;
82409;SDS011;72049;51.766;6.846;2024-02-21T10:26:17;4.95;;;1.63;;
82409;SDS011;72049;51.766;6.846;2024-02-21T10:28:42;6.93;;;1.80;;
82409;SDS011;72049;51.766;6.846;2024-02-21T10:31:10;6.97;;;2.05;;
82409;SDS011;72049;51.766;6.846;2024-02-21T10:33:36;5.40;;;2.38;;
82409;SDS011;72049;51.766;6.846;2024-02-21T10:36:05;7.00;;;2.40;;
82409;SDS011;72049;51.766;6.846;2024-02-21T10:38:31;7.22;;;2.67;;
82409;SDS011;72049;51.766;6.846;2024-02-21T10:40:57;5.38;;;2.65;;
82409;SDS011;72049;51.766;6.846;2024-02-21T10:43:23;5.43;;;2.10;;
82409;SDS011;72049;51.766;6.846;2024-02-21T10:45:50;3.08;;;1.75;;
82409;SDS011;72049;51.766;6.846;2024-02-21T10:48:19;7.20;;;2.28;;
82409;SDS011;72049;51.766;6.846;2024-02-21T10:50:57;4.50;;;2.13;;
82409;SDS011;72049;51.766;6.846;2024-02-21T10:56:16;8.30;;;2.40;;
82409;SDS011;72049;51.766;6.846;2024-02-21T10:58:42;5.65;;;2.30;;
82409;SDS011;72049;51.766;6.846;2024-02-21T11:01:08;6.10;;;1.70;;
82409;SDS011;72049;51.766;6.846;2024-02-21T11:03:33;5.82;;;2.22;;
82409;SDS011;72049;51.766;6.846;2024-02-21T11:05:58;6.82;;;1.95;;
82409;SDS011;72049;51.766;6.846;2024-02-21T11:08:24;7.60;;;2.13;;
82409;SDS011;72049;51.766;6.846;2024-02-21T11:10:56;5.78;;;1.90;;
82409;SDS011;72049;51.766;6.846;2024-02-21T11:13:29;9.98;;;2.40;;
82409;SDS011;72049;51.766;6.846;2024-02-21T11:16:05;3.13;;;1.42;;
82409;SDS011;72049;51.766;6.846;2024-02-21T11:18:30;8.15;;;1.90;;
82409;SDS011;72049;51.766;6.846;2024-02-21T11:20:55;5.03;;;2.15;;
82409;SDS011;72049;51.766;6.846;2024-02-21T11:23:27;6.10;;;2.20;;
82409;SDS011;72049;51.766;6.846;2024-02-21T11:26:03;3.17;;;1.42;;
82409;SDS011;72049;51.766;6.846;2024-02-21T11:28:28;4.40;;;2.13;;
82409;SDS011;72049;51.766;6.846;2024-02-21T11:30:53;6.73;;;1.80;;
82409;SDS011;72049;51.766;6.846;2024-02-21T11:33:29;4.30;;;2.30;;
82409;SDS011;72049;51.766;6.846;2024-02-21T11:35:54;6.10;;;2.40;;
82409;SDS011;72049;51.766;6.846;2024-02-21T11:38:22;4.88;;;1.55;;
82409;SDS011;72049;51.766;6.846;2024-02-21T11:40:48;5.50;;;2.08;;
82409;SDS011;72049;51.766;6.846;2024-02-21T11:43:13;3.78;;;1.70;;
82409;SDS011;72049;51.766;6.846;2024-02-21T11:45:38;5.43;;;1.83;;
82409;SDS011;72049;51.766;6.846;2024-02-21T11:48:07;6.07;;;2.20;;
82409;SDS011;72049;51.766;6.846;2024-02-21T11:50:36;5.40;;;1.80;;
82409;SDS011;72049;51.766;6.846;2024-02-21T11:53:02;3.25;;;1.60;;
82409;SDS011;72049;51.766;6.846;2024-02-21T11:55:27;3.35;;;1.60;;
82409;SDS011;72049;51.766;6.846;2024-02-21T11:57:53;7.03;;;2.20;;
82409;SDS011;72049;51.766;6.846;2024-02-21T12:00:19;3.25;;;1.63;;
82409;SDS011;72049;51.766;6.846;2024-02-21T12:02:49;5.30;;;2.13;;
82409;SDS011;72049;51.766;6.846;2024-02-21T12:05:15;4.43;;;1.90;;
82409;SDS011;72049;51.766;6.846;2024-02-21T12:07:41;5.93;;;2.25;;
82409;SDS011;72049;51.766;6.846;2024-02-21T12:10:07;5.55;;;2.03;;
82409;SDS011;72049;51.766;6.846;2024-02-21T12:12:34;8.15;;;2.50;;
82409;SDS011;72049;51.766;6.846;2024-02-21T12:15:01;5.20;;;2.78;;
82409;SDS011;72049;51.766;6.846;2024-02-21T12:17:29;6.47;;;2.30;;
82409;SDS011;72049;51.766;6.846;2024-02-21T12:19:54;3.53;;;1.67;;
82409;SDS011;72049;51.766;6.846;2024-02-21T12:22:20;4.18;;;1.80;;
82409;SDS011;72049;51.766;6.846;2024-02-21T12:24:45;5.32;;;1.90;;
82409;SDS011;72049;51.766;6.846;2024-02-21T12:27:13;7.68;;;2.75;;
82409;SDS011;72049;51.766;6.846;2024-02-21T12:29:38;3.92;;;2.08;;
82409;SDS011;72049;51.766;6.846;2024-02-21T12:32:04;6.03;;;2.70;;
82409;SDS011;72049;51.766;6.846;2024-02-21T12:34:29;5.05;;;1.83;;
82409;SDS011;72049;51.766;6.846;2024-02-21T12:36:58;5.90;;;1.98;;
82409;SDS011;72049;51.766;6.846;2024-02-21T12:39:23;7.43;;;2.53;;
82409;SDS011;72049;51.766;6.846;2024-02-21T12:41:48;3.60;;;1.80;;
82409;SDS011;72049;51.766;6.846;2024-02-21T12:44:14;6.82;;;2.05;;
82409;SDS011;72049;51.766;6.846;2024-02-21T12:46:41;6.85;;;2.33;;
82409;SDS011;72049;51.766;6.846;2024-02-21T12:49:06;9.23;;;2.70;;
82409;SDS011;72049;51.766;6.846;2024-02-21T12:51:34;7.93;;;2.00;;
82409;SDS011;72049;51.766;6.846;2024-02-21T12:54:00;4.18;;;1.60;;
82409;SDS011;72049;51.766;6.846;2024-02-21T12:56:26;3.88;;;1.52;;
82409;SDS011;72049;51.766;6.846;2024-02-21T12:58:53;4.68;;;1.70;;
82409;SDS011;72049;51.766;6.846;2024-02-21T13:01:19;2.13;;;1.30;;
82409;SDS011;72049;51.766;6.846;2024-02-21T13:03:44;5.68;;;1.70;;
82409;SDS011;72049;51.766;6.846;2024-02-21T13:06:11;4.07;;;1.60;;
82409;SDS011;72049;51.766;6.846;2024-02-21T13:08:37;4.03;;;2.13;;
82409;SDS011;72049;51.766;6.846;2024-02-21T13:11:02;6.13;;;2.25;;
82409;SDS011;72049;51.766;6.846;2024-02-21T13:13:28;4.38;;;2.25;;
82409;SDS011;72049;51.766;6.846;2024-02-21T13:15:53;4.10;;;1.40;;
82409;SDS011;72049;51.766;6.846;2024-02-21T13:18:19;5.85;;;1.60;;
82409;SDS011;72049;51.766;6.846;2024-02-21T13:20:44;4.97;;;1.92;;
82409;SDS011;72049;51.766;6.846;2024-02-21T13:23:10;5.68;;;2.25;;
82409;SDS011;72049;51.766;6.846;2024-02-21T13:25:35;6.60;;;1.77;;
82409;SDS011;72049;51.766;6.846;2024-02-21T13:28:00;7.63;;;2.00;;
82409;SDS011;72049;51.766;6.846;2024-02-21T13:30:26;3.88;;;2.13;;
82409;SDS011;72049;51.766;6.846;2024-02-21T13:32:52;7.47;;;2.40;;
82409;SDS011;72049;51.766;6.846;2024-02-21T13:35:19;6.72;;;1.98;;
82409;SDS011;72049;51.766;6.846;2024-02-21T13:37:45;3.63;;;1.95;;
82409;SDS011;72049;51.766;6.846;2024-02-21T13:40:11;4.22;;;1.52;;
82409;SDS011;72049;51.766;6.846;2024-02-21T13:42:36;5.13;;;1.75;;
82409;SDS011;72049;51.766;6.846;2024-02-21T13:45:02;6.80;;;2.25;;
82409;SDS011;72049;51.766;6.846;2024-02-21T13:47:28;4.63;;;1.63;;
82409;SDS011;72049;51.766;6.846;2024-02-21T13:49:54;5.22;;;1.90;;
82409;SDS011;72049;51.766;6.846;2024-02-21T13:52:20;2.08;;;1.05;;
82409;SDS011;72049;51.766;6.846;2024-02-21T13:54:46;5.20;;;2.05;;
82409;SDS011;72049;51.766;6.846;2024-02-21T13:57:11;6.75;;;2.25;;
82409;SDS011;72049;51.766;6.846;2024-02-21T13:59:37;4.07;;;2.15;;
82409;SDS011;72049;51.766;6.846;2024-02-21T14:02:02;3.60;;;1.67;;
82409;SDS011;72049;51.766;6.846;2024-02-21T14:04:27;6.20;;;1.73;;
82409;SDS011;72049;51.766;6.846;2024-02-21T14:06:55;6.18;;;1.92;;
82409;SDS011;72049;51.766;6.846;2024-02-21T14:09:20;7.82;;;1.63;;
82409;SDS011;72049;51.766;6.846;2024-02-21T14:11:46;4.50;;;1.67;;
82409;SDS011;72049;51.766;6.846;2024-02-21T14:14:13;4.45;;;1.70;;
82409;SDS011;72049;51.766;6.846;2024-02-21T14:16:40;5.97;;;1.52;;
82409;SDS011;72049;51.766;6.846;2024-02-21T14:19:05;5.20;;;1.80;;
82409;SDS011;72049;51.766;6.846;2024-02-21T14:21:32;4.28;;;1.23;;
82409;SDS011;72049;51.766;6.846;2024-02-21T14:23:57;3.30;;;1.20;;
82409;SDS011;72049;51.766;6.846;2024-02-21T14:26:23;6.07;;;1.83;;
82409;SDS011;72049;51.766;6.846;2024-02-21T14:28:48;5.50;;;1.50;;
82409;SDS011;72049;51.766;6.846;2024-02-21T14:31:14;4.97;;;1.50;;
82409;SDS011;72049;51.766;6.846;2024-02-21T14:33:39;2.40;;;1.23;;
82409;SDS011;72049;51.766;6.846;2024-02-21T14:36:05;4.82;;;1.48;;
82409;SDS011;72049;51.766;6.846;2024-02-21T14:38:30;5.78;;;1.70;;
82409;SDS011;72049;51.766;6.846;2024-02-21T14:40:56;3.97;;;1.70;;